Time;durP1;ratioP1;P1;durP2;ratioP2;P2;SDS_P1;SDS_P2;PMS_P1;PMS_P2;Temp;Humidity;BMP_temperature;BMP_pressure;BME280_temperature;BME280_humidity;BME280_pressure;Samples;Min_cycle;Max_cycle;Signal;HPM_P1;HPM_P2
2023/11/23 00:00:14;;;;;;;1.17;1.07;;;7.80;91.30;;;;;;4955677;29;20528;-61
2023/11/23 00:02:40;;;;;;;1.67;0.88;;;7.80;91.80;;;;;;4955140;29;20521;-61
2023/11/23 00:05:07;;;;;;;1.30;1.25;;;7.70;92.40;;;;;;4955159;29;20659;-61
2023/11/23 00:07:33;;;;;;;0.60;0.60;;;7.70;92.60;;;;;;4955354;29;20166;-61
2023/11/23 00:09:59;;;;;;;0.40;0.40;;;7.70;91.70;;;;;;4955201;28;20200;-61
2023/11/23 00:12:25;;;;;;;0.50;0.50;;;7.70;92.50;;;;;;4954875;29;20217;-62
2023/11/23 00:14:54;;;;;;;2.10;2.00;;;7.70;92.90;;;;;;4955212;29;20406;-62
2023/11/23 00:17:20;;;;;;;0.40;0.40;;;7.70;92.40;;;;;;4937895;29;20180;-61
2023/11/23 00:19:48;;;;;;;1.17;1.17;;;7.70;91.60;;;;;;4955174;29;20182;-61
2023/11/23 00:22:22;;;;;;;1.75;1.27;;;7.60;92.70;;;;;;4954755;29;20437;-61
2023/11/23 00:24:48;;;;;;;0.85;0.85;;;7.60;93.20;;;;;;4955058;29;20178;-61
2023/11/23 00:27:17;;;;;;;1.53;1.43;;;7.70;92.20;;;;;;4954946;29;20175;-62
2023/11/23 00:29:44;;;;;;;1.58;0.95;;;7.70;91.70;;;;;;4955332;29;20413;-61
2023/11/23 00:32:09;;;;;;;1.05;1.05;;;7.70;91.60;;;;;;4954935;29;20693;-61
2023/11/23 00:34:35;;;;;;;1.13;1.03;;;7.70;91.60;;;;;;4934168;29;20179;-61
2023/11/23 00:37:01;;;;;;;2.80;2.60;;;7.60;92.00;;;;;;4930634;29;20177;-61
2023/11/23 00:39:26;;;;;;;0.73;0.73;;;7.60;92.10;;;;;;4954780;29;20706;-61
2023/11/23 00:41:52;;;;;;;0.80;0.70;;;7.60;92.50;;;;;;4954586;28;20299;-61
2023/11/23 00:44:18;;;;;;;0.50;0.50;;;7.60;92.60;;;;;;4954451;28;20651;-61
2023/11/23 00:46:44;;;;;;;1.27;1.17;;;7.60;92.40;;;;;;4954650;29;20180;-61
2023/11/23 00:49:10;;;;;;;0.30;0.30;;;7.60;91.80;;;;;;4954677;28;20173;-61
2023/11/23 00:51:36;;;;;;;0.60;0.60;;;7.60;92.90;;;;;;4954370;29;20182;-62
2023/11/23 00:54:04;;;;;;;1.23;1.13;;;7.60;91.80;;;;;;4936618;29;20434;-61
2023/11/23 00:56:30;;;;;;;0.50;0.50;;;7.60;92.50;;;;;;4954614;29;20459;-61
2023/11/23 00:58:55;;;;;;;0.60;0.60;;;7.40;92.90;;;;;;4954634;29;20272;-61
2023/11/23 01:01:21;;;;;;;0.73;0.73;;;7.30;93.40;;;;;;4954388;29;20452;-61
2023/11/23 01:03:46;;;;;;;0.40;0.40;;;7.10;93.60;;;;;;4954000;29;20195;-61
2023/11/23 01:06:13;;;;;;;0.67;0.67;;;7.10;93.70;;;;;;4954230;29;20178;-61
2023/11/23 01:08:39;;;;;;;0.90;0.90;;;7.10;93.80;;;;;;4954589;29;20169;-61
2023/11/23 01:11:05;;;;;;;0.40;0.40;;;7.20;94.00;;;;;;4954246;28;20185;-61
2023/11/23 01:13:31;;;;;;;0.90;0.90;;;7.10;94.00;;;;;;4953290;29;20606;-61
2023/11/23 01:15:56;;;;;;;0.50;0.50;;;7.00;94.10;;;;;;4954347;29;20173;-61
2023/11/23 01:18:24;;;;;;;3.30;1.13;;;7.00;93.50;;;;;;4954395;29;20504;-61
2023/11/23 01:20:52;;;;;;;0.57;0.57;;;7.10;93.30;;;;;;4953857;29;20210;-62
2023/11/23 01:23:18;;;;;;;0.70;0.70;;;6.90;93.30;;;;;;4953566;29;20557;-61
2023/11/23 01:25:45;;;;;;;0.70;0.70;;;6.70;93.50;;;;;;4936980;29;20268;-61
2023/11/23 01:28:11;;;;;;;0.50;0.50;;;6.60;93.20;;;;;;4954315;29;20202;-61
2023/11/23 01:30:37;;;;;;;0.50;0.50;;;6.60;93.40;;;;;;4954223;29;20192;-61
2023/11/23 01:33:03;;;;;;;0.40;0.40;;;6.50;93.70;;;;;;4953567;29;20195;-62
2023/11/23 01:35:29;;;;;;;0.60;0.60;;;6.40;94.10;;;;;;4936621;29;20266;-61
2023/11/23 01:37:55;;;;;;;0.50;0.50;;;6.50;93.60;;;;;;4953790;29;20413;-61
2023/11/23 01:40:20;;;;;;;2.10;0.70;;;6.60;93.10;;;;;;4953934;29;20271;-61
2023/11/23 01:42:46;;;;;;;0.63;0.63;;;6.70;92.90;;;;;;4953748;29;20197;-61
2023/11/23 01:45:12;;;;;;;0.40;0.40;;;6.60;92.50;;;;;;4954117;29;20181;-61
2023/11/23 01:47:40;;;;;;;10.47;0.60;;;6.70;92.50;;;;;;4954017;29;20189;-61
2023/11/23 01:50:07;;;;;;;0.77;0.77;;;6.50;93.30;;;;;;4953965;29;20192;-61
2023/11/23 01:52:33;;;;;;;0.73;0.73;;;6.20;93.50;;;;;;4953291;29;20197;-61
2023/11/23 01:54:59;;;;;;;0.40;0.40;;;6.10;94.00;;;;;;4953621;29;20180;-61
2023/11/23 01:57:29;;;;;;;0.40;0.40;;;6.10;94.30;;;;;;4953667;29;20413;-62
2023/11/23 01:59:58;;;;;;;0.50;0.50;;;6.10;94.50;;;;;;4953506;29;20221;-61
2023/11/23 02:02:26;;;;;;;1.27;1.17;;;6.20;93.60;;;;;;4953299;29;20249;-61
2023/11/23 02:04:52;;;;;;;0.93;0.93;;;6.30;93.20;;;;;;4956814;28;20635;-61
2023/11/23 02:07:17;;;;;;;1.98;1.20;;;6.50;93.50;;;;;;4960023;28;20670;-61
2023/11/23 02:09:45;;;;;;;0.43;0.43;;;6.50;94.00;;;;;;4959859;28;20232;-62
2023/11/23 02:12:11;;;;;;;3.50;0.85;;;6.50;94.20;;;;;;4959636;28;20209;-62
2023/11/23 02:14:36;;;;;;;0.57;0.50;;;6.60;94.50;;;;;;4959749;28;20595;-62
2023/11/23 02:17:18;;;;;;;0.93;0.90;;;6.70;93.30;;;;;;4960232;29;20209;-61
2023/11/23 02:19:46;;;;;;;0.68;0.68;;;6.70;93.30;;;;;;4960154;29;20281;-61
2023/11/23 02:22:12;;;;;;;0.50;0.50;;;6.70;94.00;;;;;;4959564;29;20220;-62
2023/11/23 02:24:38;;;;;;;0.85;0.85;;;6.80;93.80;;;;;;4959626;29;20205;-61
2023/11/23 02:27:06;;;;;;;2.15;1.52;;;6.90;93.80;;;;;;4959822;28;20266;-62
2023/11/23 02:29:31;;;;;;;0.30;0.30;;;6.90;93.90;;;;;;4959630;28;20176;-62
2023/11/23 02:31:58;;;;;;;0.70;0.70;;;7.00;94.20;;;;;;4959680;28;20560;-62
2023/11/23 02:34:24;;;;;;;1.90;1.80;;;7.00;94.20;;;;;;4942485;29;20271;-62
2023/11/23 02:36:50;;;;;;;0.80;0.70;;;7.00;94.30;;;;;;4959479;29;20663;-62
2023/11/23 02:39:15;;;;;;;1.67;1.47;;;7.10;94.20;;;;;;4959612;29;20417;-62
2023/11/23 02:41:41;;;;;;;1.97;0.90;;;7.10;94.10;;;;;;4959409;28;20200;-62
2023/11/23 02:44:06;;;;;;;1.07;0.90;;;7.00;94.10;;;;;;4959262;29;20178;-62
2023/11/23 02:46:32;;;;;;;2.17;2.07;;;6.90;94.20;;;;;;4959696;28;20197;-62
2023/11/23 02:48:58;;;;;;;1.23;1.23;;;6.90;94.50;;;;;;4959205;29;20181;-62
2023/11/23 02:51:25;;;;;;;1.40;1.25;;;6.80;94.50;;;;;;4959474;29;20181;-62
2023/11/23 02:53:50;;;;;;;0.60;0.60;;;6.90;94.40;;;;;;4959089;29;20280;-62
2023/11/23 02:56:16;;;;;;;0.80;0.80;;;6.90;94.10;;;;;;4959676;29;20287;-62
2023/11/23 02:58:42;;;;;;;3.35;1.00;;;7.00;93.20;;;;;;4959505;28;20182;-61
2023/11/23 03:01:08;;;;;;;0.60;0.60;;;7.10;93.30;;;;;;4942506;29;20315;-61
2023/11/23 03:03:34;;;;;;;0.70;0.60;;;6.90;93.70;;;;;;4959178;29;20189;-62
2023/11/23 03:06:00;;;;;;;0.83;0.83;;;6.90;93.80;;;;;;4959319;29;20174;-61
2023/11/23 03:08:27;;;;;;;0.47;0.40;;;7.00;92.80;;;;;;4959268;28;20413;-61
2023/11/23 03:10:54;;;;;;;2.45;1.80;;;7.10;92.50;;;;;;4959311;28;20193;-62
2023/11/23 03:13:20;;;;;;;0.52;0.52;;;7.00;92.20;;;;;;4959021;29;20213;-62
2023/11/23 03:15:46;;;;;;;0.70;0.70;;;7.00;92.30;;;;;;4957390;28;20177;-61
2023/11/23 03:18:11;;;;;;;0.80;0.60;;;7.00;92.50;;;;;;4956408;29;20181;-62
2023/11/23 03:20:37;;;;;;;5.40;1.83;;;6.80;93.20;;;;;;4954788;29;20255;-62
2023/11/23 03:23:02;;;;;;;0.50;0.50;;;6.60;93.80;;;;;;4955822;28;20185;-62
2023/11/23 03:25:28;;;;;;;0.40;0.40;;;6.60;94.20;;;;;;4956348;29;20170;-62
2023/11/23 03:27:54;;;;;;;1.47;1.37;;;6.60;94.30;;;;;;4956568;29;20178;-62
2023/11/23 03:30:19;;;;;;;0.60;0.60;;;6.70;94.40;;;;;;4956411;29;20662;-62
2023/11/23 03:32:46;;;;;;;1.80;1.30;;;6.60;94.60;;;;;;4955709;29;20252;-61
2023/11/23 03:35:11;;;;;;;1.70;0.93;;;6.70;94.70;;;;;;4955938;29;20647;-62
2023/11/23 03:37:37;;;;;;;0.97;0.97;;;6.70;94.60;;;;;;4955991;29;20593;-62
2023/11/23 03:40:04;;;;;;;0.63;0.63;;;6.80;94.40;;;;;;4955872;28;20217;-61
2023/11/23 03:42:31;;;;;;;1.27;1.23;;;6.90;94.10;;;;;;4938490;29;20198;-62
2023/11/23 03:44:58;;;;;;;0.50;0.50;;;7.10;93.10;;;;;;4955758;29;20182;-62
2023/11/23 03:47:24;;;;;;;0.85;0.85;;;7.10;92.80;;;;;;4955929;29;20204;-61
2023/11/23 03:49:51;;;;;;;0.93;0.93;;;7.20;91.90;;;;;;4955848;29;20588;-62
2023/11/23 03:52:17;;;;;;;1.52;1.42;;;7.30;91.80;;;;;;4955460;29;20202;-62
2023/11/23 03:54:42;;;;;;;2.93;1.80;;;7.20;92.30;;;;;;4955211;29;20719;-62
2023/11/23 03:57:08;;;;;;;0.83;0.83;;;7.10;92.60;;;;;;4938356;29;20268;-62
2023/11/23 03:59:34;;;;;;;1.13;1.10;;;6.90;93.30;;;;;;4955608;29;20249;-62
2023/11/23 04:01:59;;;;;;;0.90;0.90;;;6.70;93.40;;;;;;4955259;28;20982;-61
2023/11/23 04:04:26;;;;;;;2.60;1.33;;;6.80;93.10;;;;;;4955230;29;20179;-62
2023/11/23 04:06:52;;;;;;;1.17;1.17;;;6.90;91.90;;;;;;4955569;28;20570;-61
2023/11/23 04:09:18;;;;;;;1.23;0.70;;;6.90;91.70;;;;;;4955443;29;20182;-61
2023/11/23 04:11:44;;;;;;;3.53;3.33;;;7.00;91.40;;;;;;4955091;29;20173;-61
2023/11/23 04:14:10;;;;;;;0.50;0.50;;;6.90;91.40;;;;;;4955225;29;20989;-61
2023/11/23 04:16:36;;;;;;;0.93;0.77;;;6.80;91.70;;;;;;4955023;28;20185;-61
2023/11/23 04:19:02;;;;;;;0.50;0.50;;;6.80;91.80;;;;;;4955538;29;20181;-61
2023/11/23 04:21:28;;;;;;;2.53;1.80;;;6.70;91.50;;;;;;4955034;28;20765;-61
2023/11/23 04:23:54;;;;;;;2.70;2.60;;;6.60;91.50;;;;;;4954958;29;20178;-61
2023/11/23 04:26:20;;;;;;;0.60;0.60;;;6.50;91.50;;;;;;4954652;29;20177;-61
2023/11/23 04:28:45;;;;;;;0.77;0.77;;;6.40;91.60;;;;;;4937757;29;20424;-61
2023/11/23 04:31:11;;;;;;;1.77;1.00;;;6.40;91.70;;;;;;4947645;29;20806;-61
2023/11/23 04:33:38;;;;;;;0.70;0.70;;;6.30;92.00;;;;;;4937699;29;20506;-61
2023/11/23 04:36:08;;;;;;;0.88;0.85;;;6.30;92.30;;;;;;4942819;29;20426;-61
2023/11/23 04:38:34;;;;;;;0.75;0.75;;;6.20;92.70;;;;;;4944843;29;20178;-61
2023/11/23 04:41:03;;;;;;;0.50;0.50;;;6.10;93.20;;;;;;4943388;29;20309;-61
2023/11/23 04:43:29;;;;;;;0.60;0.60;;;6.20;92.60;;;;;;4944016;29;20245;-61
2023/11/23 04:45:57;;;;;;;2.38;1.05;;;6.20;92.10;;;;;;4944465;29;20553;-61
2023/11/23 04:48:23;;;;;;;0.40;0.40;;;6.20;91.90;;;;;;4948626;29;20173;-61
2023/11/23 04:50:48;;;;;;;0.90;0.90;;;6.10;91.80;;;;;;4945673;29;20190;-61
2023/11/23 04:53:14;;;;;;;0.60;0.60;;;6.10;91.80;;;;;;4948558;28;20206;-61
2023/11/23 04:55:40;;;;;;;2.07;0.90;;;5.90;91.70;;;;;;4946062;29;20181;-61
2023/11/23 04:58:07;;;;;;;1.37;1.23;;;5.90;91.80;;;;;;4943449;29;20194;-61
2023/11/23 05:00:35;;;;;;;2.45;1.48;;;5.80;92.40;;;;;;4918208;29;20293;-61
2023/11/23 05:03:01;;;;;;;0.82;0.82;;;5.70;92.20;;;;;;4934710;29;20206;-61
2023/11/23 05:05:27;;;;;;;0.60;0.50;;;5.70;92.10;;;;;;4934215;29;20184;-61
2023/11/23 05:07:53;;;;;;;0.57;0.57;;;5.90;92.20;;;;;;4934925;29;20552;-61
2023/11/23 05:10:20;;;;;;;1.00;1.00;;;5.80;92.00;;;;;;4935196;29;20927;-61
2023/11/23 05:12:45;;;;;;;0.63;0.60;;;5.50;92.60;;;;;;4934516;29;20566;-61
2023/11/23 05:15:11;;;;;;;0.57;0.57;;;5.50;92.70;;;;;;4917923;29;20245;-61
2023/11/23 05:17:37;;;;;;;1.90;0.77;;;5.50;92.40;;;;;;4935118;29;20776;-61
2023/11/23 05:20:04;;;;;;;0.40;0.40;;;5.50;92.40;;;;;;4934967;29;20201;-61
2023/11/23 05:22:29;;;;;;;1.20;1.20;;;5.30;93.00;;;;;;4934813;29;20496;-61
2023/11/23 05:24:56;;;;;;;0.50;0.50;;;5.30;92.80;;;;;;4934915;29;20443;-61
2023/11/23 05:27:21;;;;;;;1.15;1.15;;;5.40;92.40;;;;;;4934861;29;20187;-61
2023/11/23 05:29:48;;;;;;;0.43;0.43;;;5.40;92.10;;;;;;4934827;29;20179;-61
2023/11/23 05:32:14;;;;;;;1.20;0.65;;;5.40;92.10;;;;;;4934586;29;20683;-61
2023/11/23 05:34:40;;;;;;;0.57;0.57;;;5.30;92.60;;;;;;4934445;29;20186;-61
2023/11/23 05:37:05;;;;;;;0.40;0.40;;;5.20;92.60;;;;;;4934667;29;20258;-61
2023/11/23 05:39:32;;;;;;;0.30;0.30;;;5.10;92.90;;;;;;4934154;29;20202;-61
2023/11/23 05:41:58;;;;;;;0.50;0.50;;;5.10;93.10;;;;;;4934374;29;20853;-61
2023/11/23 05:44:24;;;;;;;0.60;0.60;;;5.20;92.30;;;;;;4934641;29;20253;-62
2023/11/23 05:46:51;;;;;;;0.57;0.57;;;5.30;92.30;;;;;;4934662;29;20213;-62
2023/11/23 05:49:21;;;;;;;0.30;0.30;;;5.30;92.20;;;;;;4934436;29;20713;-62
2023/11/23 05:51:47;;;;;;;0.30;0.30;;;5.20;92.00;;;;;;4934256;29;20189;-62
2023/11/23 05:54:13;;;;;;;0.98;0.68;;;5.10;92.70;;;;;;4913724;29;20183;-62
2023/11/23 05:56:39;;;;;;;0.40;0.40;;;4.90;93.10;;;;;;4935647;29;20185;-62
2023/11/23 05:59:05;;;;;;;0.40;0.40;;;4.80;93.40;;;;;;4953447;28;20190;-62
2023/11/23 06:01:30;;;;;;;0.30;0.30;;;4.70;93.70;;;;;;4947416;29;20264;-62
2023/11/23 06:03:57;;;;;;;0.30;0.30;;;4.70;93.80;;;;;;4953292;29;20596;-62
2023/11/23 06:06:23;;;;;;;0.32;0.32;;;4.90;93.00;;;;;;4953278;29;20711;-63
2023/11/23 06:08:50;;;;;;;0.38;0.38;;;5.10;92.50;;;;;;4936585;29;20197;-63
2023/11/23 06:11:16;;;;;;;0.77;0.77;;;5.10;92.30;;;;;;4953588;29;20648;-62
2023/11/23 06:13:43;;;;;;;0.70;0.70;;;5.10;92.10;;;;;;4953369;29;20224;-63
2023/11/23 06:16:09;;;;;;;0.65;0.65;;;5.10;92.10;;;;;;4953435;29;20260;-62
2023/11/23 06:18:36;;;;;;;0.30;0.30;;;4.90;92.90;;;;;;4935982;29;20268;-62
2023/11/23 06:21:02;;;;;;;0.52;0.52;;;4.80;93.30;;;;;;4951064;28;20205;-63
2023/11/23 06:23:29;;;;;;;0.40;0.40;;;4.90;92.50;;;;;;4952670;29;20219;-62
2023/11/23 06:25:55;;;;;;;0.40;0.40;;;5.00;92.20;;;;;;4953080;29;20444;-62
2023/11/23 06:28:21;;;;;;;0.30;0.30;;;4.20;92.40;;;;;;4936072;29;20649;-62
2023/11/23 06:30:48;;;;;;;0.90;0.90;;;3.50;93.50;;;;;;4953104;29;20472;-63
2023/11/23 06:33:13;;;;;;;0.30;0.30;;;3.00;94.70;;;;;;4952541;29;20200;-62
2023/11/23 06:35:40;;;;;;;0.80;0.50;;;2.70;95.80;;;;;;4952416;29;20231;-61
2023/11/23 06:38:05;;;;;;;0.75;0.75;;;2.40;96.60;;;;;;4952529;28;20193;-63
2023/11/23 06:40:34;;;;;;;0.30;0.30;;;2.30;96.90;;;;;;4953206;28;20208;-63
2023/11/23 06:43:01;;;;;;;0.30;0.30;;;2.20;97.00;;;;;;4945900;29;20510;-62
2023/11/23 06:45:28;;;;;;;0.38;0.38;;;2.10;97.10;;;;;;4944936;28;20205;-62
2023/11/23 06:47:54;;;;;;;0.30;0.30;;;2.10;97.30;;;;;;4936079;29;20655;-62
2023/11/23 06:50:20;;;;;;;0.30;0.30;;;2.00;97.40;;;;;;4934241;29;20707;-62
2023/11/23 06:52:46;;;;;;;0.30;0.30;;;2.00;97.40;;;;;;4936740;29;20197;-62
2023/11/23 06:55:14;;;;;;;0.30;0.30;;;2.00;97.60;;;;;;4946210;28;20188;-62
2023/11/23 06:57:44;;;;;;;0.30;0.30;;;2.00;97.60;;;;;;4948486;29;20552;-62
2023/11/23 07:00:10;;;;;;;0.30;0.30;;;1.90;97.60;;;;;;4948398;29;20209;-63
2023/11/23 07:02:36;;;;;;;0.30;0.30;;;1.90;97.60;;;;;;4950439;29;20208;-61
2023/11/23 07:05:03;;;;;;;0.30;0.30;;;1.90;97.70;;;;;;4948851;28;20180;-61
2023/11/23 07:07:32;;;;;;;0.30;0.30;;;1.90;97.90;;;;;;4955976;29;20181;-61
2023/11/23 07:09:58;;;;;;;1.77;1.20;;;1.90;98.00;;;;;;4940133;29;20217;-62
2023/11/23 07:12:23;;;;;;;0.30;0.30;;;1.90;98.20;;;;;;4954331;29;20793;-62
2023/11/23 07:14:49;;;;;;;0.40;0.40;;;1.90;98.20;;;;;;4947273;28;20176;-62
2023/11/23 07:17:15;;;;;;;0.40;0.40;;;1.90;98.20;;;;;;4937580;29;20559;-62
2023/11/23 07:19:41;;;;;;;0.80;0.80;;;1.90;98.10;;;;;;4957078;29;20178;-62
2023/11/23 07:22:07;;;;;;;0.45;0.45;;;2.00;98.20;;;;;;4956935;29;20681;-62
2023/11/23 07:24:33;;;;;;;0.40;0.40;;;2.00;98.60;;;;;;4956645;29;20282;-61
2023/11/23 07:26:58;;;;;;;0.40;0.40;;;1.90;98.80;;;;;;4956732;29;20538;-62
2023/11/23 07:29:24;;;;;;;0.37;0.37;;;1.90;98.90;;;;;;4950472;29;20413;-62
2023/11/23 07:31:51;;;;;;;0.40;0.40;;;1.90;99.20;;;;;;4956867;29;20200;-62
2023/11/23 07:34:16;;;;;;;0.82;0.82;;;2.00;98.90;;;;;;4956432;29;20289;-62
2023/11/23 07:36:42;;;;;;;1.13;0.73;;;2.10;98.60;;;;;;4956820;29;20215;-62
2023/11/23 07:39:08;;;;;;;0.40;0.40;;;2.10;99.00;;;;;;4956902;28;20180;-62
2023/11/23 07:41:33;;;;;;;0.40;0.40;;;2.10;99.30;;;;;;4956176;29;20208;-62
2023/11/23 07:43:59;;;;;;;0.93;0.93;;;2.00;99.40;;;;;;4956081;29;20176;-62
2023/11/23 07:46:27;;;;;;;0.30;0.30;;;2.00;99.90;;;;;;4956291;29;20535;-62
2023/11/23 07:48:54;;;;;;;0.60;0.40;;;2.50;99.90;;;;;;4956325;29;20411;-62
2023/11/23 07:51:20;;;;;;;0.57;0.57;;;3.80;99.90;;;;;;4955834;29;20207;-62
2023/11/23 07:53:46;;;;;;;0.50;0.50;;;5.60;99.00;;;;;;4955329;29;20209;-63
2023/11/23 07:56:13;;;;;;;0.70;0.70;;;7.40;95.10;;;;;;4955523;28;20201;-62
2023/11/23 07:58:39;;;;;;;1.90;1.80;;;9.10;91.70;;;;;;4955385;29;20212;-62
2023/11/23 08:01:05;;;;;;;1.50;1.40;;;10.40;89.40;;;;;;4955500;29;20500;-63
2023/11/23 08:03:31;;;;;;;1.33;1.00;;;11.30;87.20;;;;;;4954794;28;20256;-63
2023/11/23 08:05:56;;;;;;;1.03;1.03;;;12.00;83.50;;;;;;4955433;29;20842;-63
2023/11/23 08:08:22;;;;;;;0.50;0.50;;;12.70;80.70;;;;;;4955487;29;20189;-63
2023/11/23 08:10:48;;;;;;;0.67;0.67;;;13.30;78.00;;;;;;4955425;29;20213;-62
2023/11/23 08:13:16;;;;;;;0.87;0.70;;;13.60;76.90;;;;;;4935759;29;20248;-62
2023/11/23 08:15:42;;;;;;;0.80;0.80;;;13.50;72.30;;;;;;4955072;29;20186;-61
2023/11/23 08:18:09;;;;;;;0.70;0.70;;;13.40;73.60;;;;;;4955398;29;20421;-62
2023/11/23 08:20:36;;;;;;;0.70;0.70;;;13.20;70.70;;;;;;4954970;29;20283;-62
2023/11/23 08:23:02;;;;;;;1.07;0.50;;;13.20;70.80;;;;;;4954590;28;20433;-61
2023/11/23 08:25:29;;;;;;;1.00;0.70;;;13.30;69.30;;;;;;4954851;29;20424;-61
2023/11/23 08:27:54;;;;;;;2.00;0.67;;;13.00;70.30;;;;;;4954893;28;20277;-62
2023/11/23 08:30:21;;;;;;;0.47;0.47;;;12.50;71.40;;;;;;4933926;29;20917;-62
2023/11/23 08:32:47;;;;;;;1.10;1.10;;;11.60;70.10;;;;;;4943360;29;20401;-62
2023/11/23 08:35:13;;;;;;;0.60;0.60;;;10.90;70.30;;;;;;4955119;29;20492;-61
2023/11/23 08:37:41;;;;;;;1.13;1.13;;;10.30;70.30;;;;;;4954983;29;20456;-61
2023/11/23 08:40:07;;;;;;;0.37;0.37;;;10.10;74.50;;;;;;4954649;29;20197;-61
2023/11/23 08:42:33;;;;;;;0.50;0.50;;;9.80;74.90;;;;;;4954309;29;20433;-62
2023/11/23 08:44:59;;;;;;;0.53;0.53;;;10.00;74.70;;;;;;4954726;29;20422;-61
2023/11/23 08:47:24;;;;;;;0.80;0.80;;;10.30;75.60;;;;;;4937703;29;20465;-62
2023/11/23 08:49:50;;;;;;;1.03;0.70;;;10.70;76.10;;;;;;4954557;29;20787;-62
2023/11/23 08:52:16;;;;;;;0.40;0.40;;;11.40;72.70;;;;;;4954407;29;20713;-61
2023/11/23 08:54:42;;;;;;;0.53;0.50;;;12.10;71.70;;;;;;4954268;29;20177;-62
2023/11/23 08:57:08;;;;;;;0.40;0.40;;;12.70;67.60;;;;;;4954125;29;20189;-62
2023/11/23 08:59:37;;;;;;;0.57;0.57;;;13.20;66.70;;;;;;4954751;29;20409;-62
2023/11/23 09:02:05;;;;;;;0.60;0.60;;;13.70;65.00;;;;;;4954337;29;20217;-62
2023/11/23 09:04:34;;;;;;;0.43;0.43;;;13.90;63.70;;;;;;4954136;29;20415;-62
2023/11/23 09:07:00;;;;;;;0.53;0.40;;;14.30;60.10;;;;;;4937476;29;20418;-62
2023/11/23 09:09:26;;;;;;;0.87;0.70;;;14.70;59.60;;;;;;4954040;28;20467;-62
2023/11/23 09:11:51;;;;;;;1.23;0.63;;;14.80;58.00;;;;;;4936617;29;20468;-62
2023/11/23 09:14:17;;;;;;;0.57;0.57;;;15.50;57.50;;;;;;4953226;28;20196;-62
2023/11/23 09:16:44;;;;;;;0.53;0.53;;;16.30;55.90;;;;;;4937163;29;20185;-62
2023/11/23 09:19:10;;;;;;;0.50;0.50;;;17.30;55.00;;;;;;4954114;28;20562;-62
2023/11/23 09:21:37;;;;;;;1.30;0.90;;;18.20;53.10;;;;;;4953636;29;20439;-62
2023/11/23 09:24:05;;;;;;;1.23;0.90;;;18.90;50.60;;;;;;4953506;29;20395;-62
2023/11/23 09:26:34;;;;;;;0.60;0.60;;;19.40;48.60;;;;;;4953999;29;20769;-62
2023/11/23 09:29:03;;;;;;;0.50;0.50;;;19.30;45.80;;;;;;4953700;29;20413;-62
2023/11/23 09:31:31;;;;;;;0.40;0.40;;;19.30;46.50;;;;;;4953763;29;20403;-62
2023/11/23 09:33:57;;;;;;;0.50;0.50;;;19.50;46.80;;;;;;4953498;28;20478;-61
2023/11/23 09:36:22;;;;;;;1.80;1.70;;;19.10;43.90;;;;;;4936424;29;20491;-62
2023/11/23 09:38:54;;;;;;;0.60;0.60;;;18.80;46.70;;;;;;4953568;29;20447;-62
2023/11/23 09:41:22;;;;;;;0.50;0.47;;;19.00;46.90;;;;;;4953830;29;20300;-62
2023/11/23 09:43:49;;;;;;;0.60;0.50;;;19.70;45.50;;;;;;4953264;29;20488;-62
2023/11/23 09:46:16;;;;;;;0.50;0.50;;;20.00;44.80;;;;;;4953535;28;20420;-62
2023/11/23 09:48:43;;;;;;;1.00;0.50;;;20.20;44.80;;;;;;4953626;29;20416;-62
2023/11/23 09:51:11;;;;;;;0.70;0.60;;;20.20;46.00;;;;;;4953412;29;20865;-62
2023/11/23 09:53:37;;;;;;;0.40;0.40;;;20.30;45.30;;;;;;4953034;29;20436;-62
2023/11/23 09:56:06;;;;;;;0.40;0.40;;;20.20;45.50;;;;;;4953476;29;20464;-62
2023/11/23 09:58:32;;;;;;;1.20;0.80;;;20.30;44.00;;;;;;4953420;29;20413;-62
2023/11/23 10:01:03;;;;;;;0.63;0.63;;;20.30;44.10;;;;;;4953313;29;20469;-62
2023/11/23 10:03:33;;;;;;;0.60;0.37;;;20.50;44.20;;;;;;4953094;29;20868;-62
2023/11/23 10:06:00;;;;;;;0.50;0.50;;;20.30;41.80;;;;;;4953230;29;20417;-62
2023/11/23 10:08:30;;;;;;;1.40;0.60;;;19.70;42.50;;;;;;4953397;29;20441;-62
2023/11/23 10:10:58;;;;;;;0.40;0.40;;;19.50;43.90;;;;;;4953377;29;20966;-62
2023/11/23 10:13:24;;;;;;;0.30;0.30;;;19.10;45.00;;;;;;4952916;29;20456;-62
2023/11/23 10:15:50;;;;;;;0.60;0.60;;;19.00;45.40;;;;;;4953341;29;20417;-62
2023/11/23 10:18:16;;;;;;;0.50;0.50;;;18.70;47.40;;;;;;4953225;29;20181;-62
2023/11/23 10:20:46;;;;;;;0.50;0.50;;;18.30;48.50;;;;;;4932439;29;20228;-62
2023/11/23 10:23:13;;;;;;;0.50;0.50;;;17.90;50.20;;;;;;4939953;29;20436;-62
2023/11/23 10:25:41;;;;;;;0.70;0.60;;;17.40;51.10;;;;;;4953992;28;20419;-62
2023/11/23 10:28:08;;;;;;;0.80;0.80;;;17.10;51.90;;;;;;4956173;29;20805;-63
2023/11/23 10:30:37;;;;;;;0.40;0.40;;;16.70;52.20;;;;;;4956931;28;20433;-62
2023/11/23 10:33:04;;;;;;;0.40;0.40;;;16.20;52.20;;;;;;4955311;29;21018;-62
2023/11/23 10:35:42;;;;;;;1.17;0.60;;;15.40;54.20;;;;;;4957329;29;20458;-61
2023/11/23 10:38:08;;;;;;;0.73;0.73;;;14.70;55.70;;;;;;4956901;29;20504;-61
2023/11/23 10:40:34;;;;;;;0.60;0.50;;;14.10;56.00;;;;;;4957060;29;20977;-61
2023/11/23 10:43:01;;;;;;;0.73;0.73;;;13.40;57.50;;;;;;4956768;29;20629;-61
2023/11/23 10:45:27;;;;;;;1.47;0.70;;;12.90;57.90;;;;;;4954239;29;20436;-61
2023/11/23 10:47:54;;;;;;;0.63;0.63;;;12.70;58.20;;;;;;4956549;29;20416;-61
2023/11/23 10:50:21;;;;;;;0.40;0.40;;;12.40;61.50;;;;;;4956806;29;20775;-60
2023/11/23 10:52:47;;;;;;;1.10;0.70;;;11.60;63.70;;;;;;4956524;29;20705;-61
2023/11/23 10:55:14;;;;;;;0.87;0.60;;;10.80;67.30;;;;;;4956833;29;20496;-61
2023/11/23 10:57:43;;;;;;;0.77;0.60;;;10.20;69.20;;;;;;4957123;29;20416;-61
2023/11/23 11:00:15;;;;;;;0.70;0.70;;;9.80;73.30;;;;;;4956637;29;20422;-63
2023/11/23 11:02:45;;;;;;;0.40;0.40;;;9.20;79.40;;;;;;4956536;29;20983;-62
2023/11/23 11:05:29;;;;;;;0.97;0.97;;;8.70;83.80;;;;;;4957089;28;20413;-61
2023/11/23 11:08:01;;;;;;;1.30;0.70;;;8.40;89.70;;;;;;4956907;29;20782;-61
2023/11/23 11:10:43;;;;;;;0.68;0.55;;;8.30;91.70;;;;;;4956718;29;20193;-61
2023/11/23 11:13:15;;;;;;;1.13;1.05;;;8.20;93.20;;;;;;4940224;29;20243;-61
2023/11/23 11:15:52;;;;;;;0.40;0.40;;;8.10;94.30;;;;;;4956518;29;20178;-62
2023/11/23 11:18:26;;;;;;;0.30;0.30;;;8.10;95.10;;;;;;4956553;29;20719;-61
2023/11/23 11:21:08;;;;;;;0.40;0.40;;;8.00;95.50;;;;;;4956679;29;20225;-61
2023/11/23 11:23:43;;;;;;;0.60;0.50;;;8.00;96.00;;;;;;4956428;29;20699;-61
2023/11/23 11:26:19;;;;;;;0.50;0.50;;;8.00;96.10;;;;;;4957047;29;20198;-61
2023/11/23 11:29:02;;;;;;;0.60;0.60;;;8.00;95.60;;;;;;4957063;29;20181;-61
2023/11/23 11:31:37;;;;;;;0.52;0.52;;;8.00;95.40;;;;;;4956843;29;20659;-61
2023/11/23 11:34:24;;;;;;;0.40;0.40;;;8.10;95.70;;;;;;4939039;29;20307;-61
2023/11/23 11:37:01;;;;;;;0.80;0.80;;;8.10;94.80;;;;;;4941196;29;20174;-61
2023/11/23 11:39:37;;;;;;;0.55;0.55;;;8.00;95.20;;;;;;4937478;29;20725;-61
2023/11/23 11:42:07;;;;;;;0.40;0.40;;;7.80;94.00;;;;;;4937556;29;20217;-61
2023/11/23 11:44:35;;;;;;;0.40;0.40;;;7.80;94.10;;;;;;4937041;29;20261;-61
2023/11/23 11:47:01;;;;;;;0.40;0.40;;;7.90;94.70;;;;;;4937097;29;20170;-61
2023/11/23 11:49:27;;;;;;;0.40;0.40;;;7.90;95.10;;;;;;4937126;29;20186;-61
2023/11/23 11:51:54;;;;;;;0.50;0.50;;;7.90;95.80;;;;;;4936976;29;20205;-61
2023/11/23 11:54:22;;;;;;;0.70;0.70;;;7.80;95.70;;;;;;4936425;29;20178;-61
2023/11/23 11:56:51;;;;;;;0.93;0.50;;;8.00;96.00;;;;;;4936748;29;20174;-61
2023/11/23 11:59:17;;;;;;;0.50;0.50;;;8.00;95.60;;;;;;4936785;29;20564;-61
2023/11/23 12:01:44;;;;;;;0.60;0.60;;;8.00;95.50;;;;;;4936353;29;20558;-61
2023/11/23 12:04:19;;;;;;;0.95;0.70;;;7.90;96.00;;;;;;4936368;29;20213;-61
2023/11/23 12:06:47;;;;;;;0.80;0.80;;;7.80;95.90;;;;;;4936697;29;20174;-61
2023/11/23 12:09:19;;;;;;;0.80;0.80;;;7.80;96.10;;;;;;4937104;29;20213;-61
2023/11/23 12:11:45;;;;;;;0.50;0.50;;;7.80;96.30;;;;;;4919295;29;20186;-61
2023/11/23 12:14:14;;;;;;;0.63;0.63;;;7.70;96.50;;;;;;4936147;29;20557;-62
2023/11/23 12:16:39;;;;;;;0.45;0.45;;;7.60;96.80;;;;;;4936417;29;20644;-61
2023/11/23 12:19:24;;;;;;;1.77;0.70;;;7.60;97.00;;;;;;4936534;29;20192;-61
2023/11/23 12:21:57;;;;;;;0.80;0.77;;;7.60;97.00;;;;;;4944903;29;20468;-61
2023/11/23 12:24:26;;;;;;;0.60;0.60;;;7.50;97.10;;;;;;4955446;29;20170;-61
2023/11/23 12:26:55;;;;;;;1.77;1.67;;;7.40;97.10;;;;;;4955812;29;20691;-61
2023/11/23 12:29:26;;;;;;;0.90;0.90;;;7.40;97.30;;;;;;4955451;29;20222;-61
2023/11/23 12:31:51;;;;;;;0.60;0.60;;;7.30;97.60;;;;;;4955478;29;20204;-61
2023/11/23 12:34:19;;;;;;;0.73;0.60;;;7.30;98.00;;;;;;4937380;29;20192;-61
2023/11/23 12:36:46;;;;;;;1.38;0.68;;;7.20;98.10;;;;;;4955177;29;20187;-61
2023/11/23 12:39:13;;;;;;;0.60;0.60;;;7.10;98.20;;;;;;4953412;29;20191;-61
2023/11/23 12:41:40;;;;;;;2.58;0.95;;;7.10;98.30;;;;;;4954619;29;20681;-61
2023/11/23 12:44:09;;;;;;;1.10;1.10;;;7.10;98.30;;;;;;4954858;29;20180;-61
2023/11/23 12:46:35;;;;;;;1.25;1.15;;;7.20;98.30;;;;;;4955506;29;20185;-61
2023/11/23 12:49:02;;;;;;;2.22;1.13;;;7.20;98.30;;;;;;4955057;28;20204;-61
2023/11/23 12:51:27;;;;;;;1.30;1.20;;;7.20;98.10;;;;;;4954719;29;20223;-61
2023/11/23 12:53:53;;;;;;;1.70;1.20;;;7.20;98.10;;;;;;4935208;29;20241;-61